createdAt,value
2023-05-04T00:02:21.698Z,20.07
2023-05-04T00:04:52.525Z,23.77
2023-05-04T00:07:23.854Z,25.80
2023-05-04T00:09:54.009Z,22.47
2023-05-04T00:12:21.264Z,24.47
2023-05-04T00:14:48.808Z,27.70
2023-05-04T00:17:17.263Z,24.43
2023-05-04T00:19:46.313Z,23.23
2023-05-04T00:22:14.665Z,26.37
2023-05-04T00:24:46.937Z,24.10
2023-05-04T00:27:14.382Z,26.03
2023-05-04T00:29:41.548Z,24.73
2023-05-04T00:32:10.011Z,24.77
2023-05-04T00:34:37.584Z,25.43
2023-05-04T00:37:08.165Z,25.27
2023-05-04T00:39:38.999Z,26.80
2023-05-04T00:42:07.543Z,24.07
2023-05-04T00:44:37.033Z,24.53
2023-05-04T00:47:07.345Z,27.20
2023-05-04T00:49:34.542Z,24.90
2023-05-04T00:52:02.925Z,26.53
2023-05-04T00:54:29.892Z,26.60
2023-05-04T00:56:56.571Z,27.93
2023-05-04T00:59:23.133Z,26.93
2023-05-04T01:01:49.667Z,28.73
2023-05-04T01:04:16.774Z,27.00
2023-05-04T01:07:03.518Z,29.17
2023-05-04T01:09:43.090Z,26.23
2023-05-04T01:12:20.746Z,30.40
2023-05-04T01:14:48.491Z,29.83
2023-05-04T01:17:14.992Z,27.87
2023-05-04T01:19:41.580Z,31.23
2023-05-04T01:22:08.143Z,27.40
2023-05-04T01:24:34.925Z,28.63
2023-05-04T01:27:46.583Z,28.10
2023-05-04T01:30:23.813Z,29.93
2023-05-04T01:32:51.311Z,27.60
2023-05-04T01:35:18.514Z,29.90
2023-05-04T01:37:47.143Z,36.53
2023-05-04T01:40:13.743Z,29.07
2023-05-04T01:42:40.243Z,27.10
2023-05-04T01:45:07.974Z,29.23
2023-05-04T01:47:34.805Z,27.43
2023-05-04T01:50:01.498Z,29.97
2023-05-04T01:52:28.165Z,28.37
2023-05-04T01:54:54.674Z,25.07
2023-05-04T01:57:21.209Z,26.73
2023-05-04T01:59:47.737Z,31.00
2023-05-04T02:02:14.308Z,29.83
2023-05-04T02:04:41.429Z,30.70
2023-05-04T02:07:08.371Z,26.27
2023-05-04T02:09:35.505Z,28.00
2023-05-04T02:12:02.731Z,25.33
2023-05-04T02:14:29.212Z,26.73
2023-05-04T02:16:55.978Z,26.17
2023-05-04T02:19:22.476Z,28.47
2023-05-04T02:21:49.003Z,33.90
2023-05-04T02:24:15.492Z,28.60
2023-05-04T02:26:41.994Z,28.50
2023-05-04T02:29:08.569Z,29.20
2023-05-04T02:31:35.379Z,28.30
2023-05-04T02:34:02.280Z,28.37
2023-05-04T02:36:29.790Z,30.23
2023-05-04T02:38:56.388Z,30.87
2023-05-04T02:41:23.016Z,29.43
2023-05-04T02:43:51.642Z,25.40
2023-05-04T02:46:20.010Z,28.70
2023-05-04T02:48:46.783Z,25.97
2023-05-04T02:51:13.247Z,27.90
2023-05-04T02:53:39.777Z,28.67
2023-05-04T02:56:06.393Z,30.57
2023-05-04T02:58:32.908Z,27.07
2023-05-04T03:00:59.554Z,26.60
2023-05-04T03:03:26.451Z,30.70
2023-05-04T03:05:53.226Z,26.83
2023-05-04T03:08:19.782Z,31.10
2023-05-04T03:10:46.348Z,31.73
2023-05-04T03:13:13.023Z,24.43
2023-05-04T03:15:39.697Z,27.20
2023-05-04T03:18:06.750Z,31.57
2023-05-04T03:20:34.044Z,24.77
2023-05-04T03:23:01.398Z,27.73
2023-05-04T03:25:28.143Z,29.63
2023-05-04T03:27:55.442Z,25.97
2023-05-04T03:30:21.924Z,28.90
2023-05-04T03:32:48.982Z,31.07
2023-05-04T03:35:17.464Z,29.27
2023-05-04T03:37:50.248Z,28.70
2023-05-04T03:40:16.779Z,29.73
2023-05-04T03:42:43.332Z,27.53
2023-05-04T03:45:10.666Z,28.40
2023-05-04T03:47:37.312Z,26.00
2023-05-04T03:50:04.221Z,34.40
2023-05-04T03:52:30.974Z,27.20
2023-05-04T03:54:57.698Z,27.33
2023-05-04T03:57:24.346Z,27.37
2023-05-04T03:59:51.875Z,27.17
2023-05-04T04:02:18.520Z,29.40
2023-05-04T04:04:45.189Z,28.10
2023-05-04T04:07:11.822Z,30.00
2023-05-04T04:09:38.979Z,30.40
2023-05-04T04:12:05.735Z,29.60
2023-05-04T04:14:32.239Z,35.40
2023-05-04T04:16:58.718Z,28.73
2023-05-04T04:19:25.303Z,30.23
2023-05-04T04:21:51.811Z,31.40
2023-05-04T04:24:18.306Z,31.80
2023-05-04T04:26:44.814Z,31.17
2023-05-04T04:29:12.204Z,36.13
2023-05-04T04:31:40.353Z,28.00
2023-05-04T04:34:06.906Z,38.43
2023-05-04T04:36:33.819Z,32.27
2023-05-04T04:39:00.473Z,27.03
2023-05-04T04:41:27.110Z,29.23
2023-05-04T04:43:53.608Z,29.20
2023-05-04T04:46:20.118Z,30.10
2023-05-04T04:48:47.154Z,25.17
2023-05-04T04:51:13.765Z,32.27
2023-05-04T04:53:40.329Z,25.63
2023-05-04T04:56:10.040Z,27.63
2023-05-04T04:58:36.600Z,24.97
2023-05-04T05:01:04.882Z,27.60
2023-05-04T05:03:32.240Z,30.07
2023-05-04T05:06:01.668Z,27.53
2023-05-04T05:08:28.434Z,26.33
2023-05-04T05:10:54.924Z,24.87
2023-05-04T05:13:21.513Z,27.77
2023-05-04T05:15:48.205Z,25.53
2023-05-04T05:18:14.803Z,24.60
2023-05-04T05:20:41.303Z,20.50
2023-05-04T05:23:07.804Z,23.17
2023-05-04T05:25:34.320Z,23.30
2023-05-04T05:28:00.794Z,21.60
2023-05-04T05:30:28.536Z,19.17
2023-05-04T05:32:55.170Z,21.37
2023-05-04T05:35:21.968Z,20.90
2023-05-04T05:37:51.977Z,17.47
2023-05-04T05:40:19.136Z,22.03
2023-05-04T05:42:45.685Z,20.20
2023-05-04T05:45:12.236Z,20.80
2023-05-04T05:47:38.814Z,21.07
2023-05-04T05:50:06.503Z,17.77
2023-05-04T05:52:33.150Z,17.73
2023-05-04T05:55:02.226Z,24.37
2023-05-04T05:57:29.381Z,18.07
2023-05-04T05:59:56.649Z,18.93
2023-05-04T06:02:23.711Z,17.03
2023-05-04T06:04:50.459Z,19.33
2023-05-04T06:07:17.817Z,19.53
2023-05-04T06:09:44.355Z,18.40
2023-05-04T06:12:13.535Z,17.20
2023-05-04T06:14:40.196Z,16.10
2023-05-04T06:17:06.761Z,17.43
2023-05-04T06:19:37.971Z,16.17
2023-05-04T06:22:05.224Z,21.43
2023-05-04T06:24:32.884Z,21.53
2023-05-04T06:26:59.442Z,24.70
2023-05-04T06:29:26.001Z,21.07
2023-05-04T06:31:52.554Z,23.43
2023-05-04T06:34:19.223Z,18.97
2023-05-04T06:36:45.770Z,16.37
2023-05-04T06:39:12.284Z,18.40
2023-05-04T06:41:38.870Z,17.00
2023-05-04T06:44:05.605Z,19.57
2023-05-04T06:46:35.311Z,16.07
2023-05-04T06:49:01.816Z,18.97
2023-05-04T06:51:28.303Z,17.23
2023-05-04T06:53:54.806Z,14.60
2023-05-04T06:56:21.829Z,11.70
2023-05-04T06:58:48.809Z,18.53
2023-05-04T07:01:17.700Z,13.70
2023-05-04T07:03:45.261Z,14.60
2023-05-04T07:06:12.281Z,15.20
2023-05-04T07:08:39.542Z,13.67
2023-05-04T07:11:06.060Z,16.17
2023-05-04T07:13:32.520Z,12.43
2023-05-04T07:15:59.031Z,13.30
2023-05-04T07:18:25.505Z,15.20
2023-05-04T07:20:53.016Z,15.67
2023-05-04T07:23:22.744Z,15.63
2023-05-04T07:25:49.244Z,12.33
2023-05-04T07:28:16.670Z,10.97
2023-05-04T07:30:43.391Z,14.10
2023-05-04T07:33:10.109Z,11.27
2023-05-04T07:35:36.766Z,9.00
2023-05-04T07:38:03.436Z,13.63
2023-05-04T07:40:29.914Z,8.97
2023-05-04T07:42:56.820Z,9.33
2023-05-04T07:45:23.461Z,8.80
2023-05-04T07:47:51.890Z,8.40
2023-05-04T07:50:19.714Z,7.20
2023-05-04T07:52:47.781Z,9.87
2023-05-04T07:55:14.282Z,8.50
2023-05-04T07:57:41.293Z,9.83
2023-05-04T08:00:09.658Z,10.07
2023-05-04T08:02:42.161Z,10.00
2023-05-04T08:05:09.179Z,10.90
2023-05-04T08:07:36.337Z,9.47
2023-05-04T08:10:03.831Z,8.67
2023-05-04T08:12:30.851Z,8.20
2023-05-04T08:14:57.789Z,6.63
2023-05-04T08:17:24.553Z,7.40
2023-05-04T08:19:51.325Z,7.23
2023-05-04T08:22:18.206Z,6.40
2023-05-04T08:24:47.352Z,6.30
2023-05-04T08:27:16.840Z,5.70
2023-05-04T08:29:43.308Z,6.30
2023-05-04T08:32:10.041Z,7.73
2023-05-04T08:34:37.316Z,6.20
2023-05-04T08:37:04.399Z,10.07
2023-05-04T08:39:30.989Z,9.40
2023-05-04T08:41:57.543Z,9.17
2023-05-04T08:44:24.254Z,9.97
2023-05-04T08:46:54.200Z,7.50
2023-05-04T08:49:21.907Z,9.50
2023-05-04T08:51:53.198Z,5.87
2023-05-04T08:54:20.981Z,8.00
2023-05-04T08:56:48.341Z,9.53
2023-05-04T08:59:23.947Z,6.40
2023-05-04T09:01:54.951Z,7.30
2023-05-04T09:04:22.662Z,8.40
2023-05-04T09:06:49.477Z,6.50
2023-05-04T09:09:16.242Z,6.03
2023-05-04T09:11:43.687Z,12.23
2023-05-04T09:14:10.265Z,6.13
2023-05-04T09:16:37.941Z,9.50
2023-05-04T09:19:16.714Z,7.60
2023-05-04T09:21:44.041Z,8.27
2023-05-04T09:24:12.526Z,8.53
2023-05-04T09:26:39.313Z,7.40
2023-05-04T09:29:13.902Z,8.87
2023-05-04T09:31:48.769Z,13.70
2023-05-04T09:34:15.488Z,6.73
2023-05-04T09:36:44.809Z,6.80
2023-05-04T09:39:15.741Z,9.03
2023-05-04T09:41:42.476Z,10.37
2023-05-04T09:44:22.477Z,8.47
2023-05-04T09:46:55.839Z,14.70
2023-05-04T09:49:40.878Z,10.57
2023-05-04T09:52:07.408Z,8.07
2023-05-04T09:54:35.837Z,8.90
2023-05-04T09:57:23.529Z,6.50
2023-05-04T09:59:51.225Z,5.10
2023-05-04T10:02:23.022Z,8.43
2023-05-04T10:04:51.579Z,8.20
2023-05-04T10:07:19.120Z,6.93
2023-05-04T10:09:47.413Z,9.80
2023-05-04T10:12:14.481Z,7.10
2023-05-04T10:14:42.783Z,7.80
2023-05-04T10:17:25.950Z,8.70
2023-05-04T10:19:58.086Z,7.50
2023-05-04T10:22:54.918Z,6.90
2023-05-04T10:25:30.746Z,10.30
2023-05-04T10:28:37.513Z,7.63
2023-05-04T10:31:06.253Z,5.77
2023-05-04T10:33:43.125Z,13.17
2023-05-04T10:36:10.551Z,6.43
2023-05-04T10:38:40.017Z,6.73
2023-05-04T10:41:19.477Z,10.20
2023-05-04T10:43:52.941Z,6.20
2023-05-04T10:46:23.938Z,8.40
2023-05-04T10:48:51.037Z,8.43
2023-05-04T10:51:22.501Z,9.20
2023-05-04T10:53:49.264Z,9.50
2023-05-04T10:56:23.127Z,11.70
2023-05-04T10:58:50.004Z,7.10
2023-05-04T11:01:17.575Z,8.43
2023-05-04T11:03:44.460Z,6.17
2023-05-04T11:06:24.090Z,6.93
2023-05-04T11:09:01.692Z,5.90
2023-05-04T11:11:28.318Z,9.73
2023-05-04T11:13:56.660Z,7.00
2023-05-04T11:16:24.645Z,14.93
2023-05-04T11:18:51.420Z,9.97
2023-05-04T11:21:27.325Z,8.07
2023-05-04T11:23:58.289Z,10.13
2023-05-04T11:26:25.949Z,7.80
2023-05-04T11:28:52.560Z,6.80
2023-05-04T11:31:20.936Z,8.43
2023-05-04T11:33:53.160Z,5.40
2023-05-04T11:36:20.272Z,7.67
2023-05-04T11:38:47.562Z,9.53
2023-05-04T11:41:14.244Z,8.37
2023-05-04T11:43:43.894Z,10.33
2023-05-04T11:46:11.244Z,8.97
2023-05-04T11:48:38.591Z,9.63
2023-05-04T11:51:06.577Z,6.70
2023-05-04T11:53:40.751Z,10.20
2023-05-04T11:56:10.757Z,9.03
2023-05-04T11:58:37.714Z,8.83
2023-05-04T12:01:04.893Z,6.93
2023-05-04T12:03:48.529Z,9.40
2023-05-04T12:06:20.130Z,6.97
2023-05-04T12:08:46.809Z,12.60
2023-05-04T12:11:25.126Z,8.90
2023-05-04T12:14:11.868Z,7.97
2023-05-04T12:16:39.524Z,7.67
2023-05-04T12:19:08.810Z,8.33
2023-05-04T12:21:36.116Z,14.43
2023-05-04T12:24:04.049Z,9.27
2023-05-04T12:26:30.639Z,8.90
2023-05-04T12:28:57.338Z,8.43
2023-05-04T12:31:25.383Z,9.83
2023-05-04T12:33:52.528Z,9.83
2023-05-04T12:36:19.215Z,9.97
2023-05-04T12:38:46.133Z,6.03
2023-05-04T12:41:12.750Z,8.50
2023-05-04T12:43:39.548Z,8.30
2023-05-04T12:46:06.800Z,11.93
2023-05-04T12:48:33.566Z,10.90
2023-05-04T12:51:01.736Z,9.50
2023-05-04T12:53:30.044Z,10.30
2023-05-04T12:55:57.211Z,9.40
2023-05-04T12:58:23.784Z,10.50
2023-05-04T13:00:50.718Z,11.00
2023-05-04T13:03:18.499Z,11.50
2023-05-04T13:05:49.892Z,12.10
2023-05-04T13:08:18.225Z,8.90
2023-05-04T13:10:46.210Z,8.80
2023-05-04T13:13:15.142Z,13.50
2023-05-04T13:15:42.310Z,9.67
2023-05-04T13:18:08.784Z,13.60
2023-05-04T13:20:35.381Z,13.33
2023-05-04T13:23:01.878Z,10.90
2023-05-04T13:25:28.418Z,10.70
2023-05-04T13:27:55.218Z,12.30
2023-05-04T13:30:21.966Z,10.20
2023-05-04T13:32:49.135Z,13.77
2023-05-04T13:35:16.154Z,11.10
2023-05-04T13:37:42.638Z,11.20
2023-05-04T13:40:09.940Z,9.23
2023-05-04T13:42:37.397Z,10.13
2023-05-04T13:45:04.929Z,7.40
2023-05-04T13:47:33.714Z,7.10
2023-05-04T13:50:00.391Z,9.10
2023-05-04T13:52:27.130Z,10.73
2023-05-04T13:54:53.686Z,7.87
2023-05-04T13:57:20.157Z,9.90
2023-05-04T14:00:02.458Z,13.47
2023-05-04T14:02:37.251Z,12.13
2023-05-04T14:05:04.157Z,8.97
2023-05-04T14:07:30.955Z,12.60
2023-05-04T14:09:58.787Z,9.70
2023-05-04T14:12:25.300Z,11.50
2023-05-04T14:14:51.842Z,10.70
2023-05-04T14:17:18.559Z,11.03
2023-05-04T14:19:45.239Z,13.10
2023-05-04T14:22:11.716Z,22.17
2023-05-04T14:24:38.326Z,18.23
2023-05-04T14:27:04.961Z,11.27
2023-05-04T14:29:33.211Z,12.03
2023-05-04T14:32:00.713Z,9.63
2023-05-04T14:34:28.336Z,7.60
2023-05-04T14:36:54.856Z,7.43
2023-05-04T14:39:21.340Z,7.97
2023-05-04T14:41:48.020Z,9.00
2023-05-04T14:44:14.591Z,8.60
2023-05-04T14:46:41.309Z,10.20
2023-05-04T14:49:07.762Z,6.70
2023-05-04T14:51:35.475Z,6.97
2023-05-04T14:54:04.393Z,7.23
2023-05-04T14:56:30.870Z,8.60
2023-05-04T14:58:57.346Z,6.07
2023-05-04T15:01:27.219Z,12.57
2023-05-04T15:03:53.850Z,10.13
2023-05-04T15:06:20.518Z,7.20
2023-05-04T15:08:47.053Z,6.80
2023-05-04T15:11:13.904Z,11.10
2023-05-04T15:13:40.418Z,12.93
2023-05-04T15:16:07.537Z,9.90
2023-05-04T15:18:34.046Z,10.07
2023-05-04T15:21:00.596Z,7.00
2023-05-04T15:23:27.383Z,12.73
2023-05-04T15:25:53.878Z,7.67
2023-05-04T15:28:22.793Z,6.07
2023-05-04T15:30:49.390Z,12.23
2023-05-04T15:33:15.968Z,6.33
2023-05-04T15:35:42.697Z,9.87
2023-05-04T15:38:09.315Z,7.80
2023-05-04T15:40:36.328Z,7.07
2023-05-04T15:43:03.692Z,6.00
2023-05-04T15:45:30.341Z,10.97
2023-05-04T15:47:59.361Z,4.87
2023-05-04T15:50:26.294Z,7.90
2023-05-04T15:52:53.044Z,7.60
2023-05-04T15:55:26.010Z,8.37
2023-05-04T15:57:54.054Z,6.70
2023-05-04T16:00:21.239Z,8.07
2023-05-04T16:02:48.034Z,6.13
2023-05-04T16:05:14.775Z,7.40
2023-05-04T16:07:41.296Z,11.90
2023-05-04T16:10:08.849Z,7.03
2023-05-04T16:12:35.761Z,7.60
2023-05-04T16:15:02.300Z,8.40
2023-05-04T16:17:30.506Z,5.40
2023-05-04T16:19:57.070Z,5.93
2023-05-04T16:22:23.550Z,5.97
2023-05-04T16:24:50.024Z,11.33
2023-05-04T16:27:16.537Z,7.20
2023-05-04T16:29:43.096Z,7.83
2023-05-04T16:32:09.631Z,8.43
2023-05-04T16:34:36.086Z,7.43
2023-05-04T16:37:02.712Z,5.90
2023-05-04T16:39:31.243Z,9.80
2023-05-04T16:41:58.451Z,6.90
2023-05-04T16:44:25.406Z,8.17
2023-05-04T16:46:53.974Z,7.23
2023-05-04T16:49:21.907Z,7.90
2023-05-04T16:51:48.551Z,7.40
2023-05-04T16:54:16.390Z,8.00
2023-05-04T16:56:42.918Z,8.70
2023-05-04T16:59:09.498Z,10.57
2023-05-04T17:01:36.064Z,9.77
2023-05-04T17:04:02.928Z,8.97
2023-05-04T17:06:29.533Z,8.70
2023-05-04T17:08:56.302Z,6.40
2023-05-04T17:11:24.084Z,6.47
2023-05-04T17:13:51.150Z,5.93
2023-05-04T17:16:17.848Z,7.27
2023-05-04T17:18:45.837Z,5.53
2023-05-04T17:21:12.643Z,3.83
2023-05-04T17:23:39.154Z,6.00
2023-05-04T17:26:06.413Z,9.70
2023-05-04T17:28:32.912Z,7.40
2023-05-04T17:30:59.432Z,13.20
2023-05-04T17:33:25.945Z,8.00
2023-05-04T17:35:52.588Z,5.00
2023-05-04T17:38:19.161Z,5.90
2023-05-04T17:40:45.846Z,6.43
2023-05-04T17:43:12.399Z,4.80
2023-05-04T17:45:38.945Z,4.77
2023-05-04T17:48:06.269Z,5.23
2023-05-04T17:50:32.837Z,11.00
2023-05-04T17:52:59.335Z,5.03
2023-05-04T17:55:26.048Z,4.90
2023-05-04T17:57:53.964Z,5.50
2023-05-04T18:00:21.002Z,6.40
2023-05-04T18:02:47.668Z,4.37
2023-05-04T18:05:14.253Z,4.70
2023-05-04T18:07:40.787Z,4.20
2023-05-04T18:10:08.074Z,6.37
2023-05-04T18:12:35.647Z,4.50
2023-05-04T18:15:08.087Z,4.63
2023-05-04T18:17:35.895Z,6.47
2023-05-04T18:20:02.532Z,6.70
2023-05-04T18:22:29.011Z,6.13
2023-05-04T18:24:55.565Z,7.20
2023-05-04T18:27:22.246Z,5.70
2023-05-04T18:29:48.828Z,5.93
2023-05-04T18:32:15.339Z,6.57
2023-05-04T18:34:42.097Z,5.00
2023-05-04T18:37:08.833Z,4.20
2023-05-04T18:39:35.298Z,7.13
2023-05-04T18:42:01.867Z,4.70
2023-05-04T18:44:28.397Z,8.03
2023-05-04T18:46:55.058Z,5.93
2023-05-04T18:49:21.587Z,10.57
2023-05-04T18:51:48.219Z,5.60
2023-05-04T18:54:16.100Z,3.60
2023-05-04T18:56:43.398Z,12.03
2023-05-04T18:59:10.800Z,12.50
2023-05-04T19:01:38.563Z,7.33
2023-05-04T19:04:05.584Z,6.17
2023-05-04T19:06:32.962Z,6.93
2023-05-04T19:08:59.757Z,4.87
2023-05-04T19:11:26.590Z,4.37
2023-05-04T19:13:53.307Z,5.93
2023-05-04T19:16:20.013Z,8.97
2023-05-04T19:18:47.299Z,8.40
2023-05-04T19:21:13.854Z,5.93
2023-05-04T19:23:40.348Z,6.13
2023-05-04T19:26:06.957Z,5.27
2023-05-04T19:28:33.529Z,5.10
2023-05-04T19:31:00.463Z,6.83
2023-05-04T19:33:40.337Z,6.33
2023-05-04T19:36:13.934Z,9.03
2023-05-04T19:38:40.748Z,6.13
2023-05-04T19:41:07.332Z,4.80
2023-05-04T19:43:33.852Z,6.80
2023-05-04T19:46:02.249Z,12.63
2023-05-04T19:48:28.802Z,7.27
2023-05-04T19:50:55.995Z,6.43
2023-05-04T19:53:22.582Z,7.97
2023-05-04T19:55:49.090Z,6.20
2023-05-04T19:58:15.913Z,4.90
2023-05-04T20:00:42.463Z,9.47
2023-05-04T20:03:09.053Z,7.90
2023-05-04T20:05:35.702Z,6.83
2023-05-04T20:08:04.831Z,5.50
2023-05-04T20:10:31.873Z,12.53
2023-05-04T20:12:58.435Z,5.90
2023-05-04T20:15:25.204Z,8.10
2023-05-04T20:17:51.975Z,5.43
2023-05-04T20:20:20.460Z,5.93
2023-05-04T20:22:49.146Z,11.30
2023-05-04T20:25:15.777Z,4.27
2023-05-04T20:27:42.408Z,6.60
2023-05-04T20:30:09.895Z,7.10
2023-05-04T20:32:36.571Z,5.53
2023-05-04T20:35:03.790Z,8.17
2023-05-04T20:37:30.425Z,9.00
2023-05-04T20:39:57.196Z,5.03
2023-05-04T20:42:24.587Z,6.63
2023-05-04T20:44:51.301Z,7.03
2023-05-04T20:47:18.474Z,5.40
2023-05-04T20:49:45.061Z,5.60
2023-05-04T20:52:11.582Z,6.63
2023-05-04T20:54:38.084Z,8.60
2023-05-04T20:57:04.749Z,7.40
2023-05-04T20:59:31.352Z,4.17
2023-05-04T21:01:57.867Z,4.73
2023-05-04T21:04:24.432Z,4.10
2023-05-04T21:06:51.078Z,5.23
2023-05-04T21:09:17.623Z,6.73
2023-05-04T21:11:44.172Z,7.20
2023-05-04T21:14:10.903Z,7.83
2023-05-04T21:16:38.468Z,5.13
2023-05-04T21:19:04.957Z,5.93
2023-05-04T21:21:32.210Z,4.43
2023-05-04T21:23:58.711Z,4.87
2023-05-04T21:26:25.280Z,6.30
2023-05-04T21:28:52.240Z,6.07
2023-05-04T21:31:18.949Z,7.70
2023-05-04T21:33:45.521Z,9.93
2023-05-04T21:36:16.164Z,6.60
2023-05-04T21:38:43.253Z,7.53
2023-05-04T21:41:14.619Z,6.30
2023-05-04T21:43:41.776Z,3.93
2023-05-04T21:46:09.136Z,3.97
2023-05-04T21:48:36.025Z,5.03
2023-05-04T21:51:02.519Z,8.80
2023-05-04T21:53:33.277Z,9.37
2023-05-04T21:56:01.116Z,7.40
2023-05-04T21:58:27.734Z,11.33
2023-05-04T22:00:54.817Z,11.17
2023-05-04T22:03:21.715Z,8.53
2023-05-04T22:05:57.516Z,8.77
2023-05-04T22:08:25.156Z,13.53
2023-05-04T22:10:52.592Z,15.27
2023-05-04T22:13:19.785Z,19.83
2023-05-04T22:15:49.734Z,19.23
2023-05-04T22:18:17.163Z,16.00
2023-05-04T22:20:43.704Z,13.93
2023-05-04T22:23:10.603Z,12.70
2023-05-04T22:25:37.631Z,12.40
2023-05-04T22:28:04.348Z,11.07
2023-05-04T22:30:31.026Z,10.60
2023-05-04T22:32:57.938Z,7.80
2023-05-04T22:35:24.586Z,10.07
2023-05-04T22:37:51.147Z,9.37
2023-05-04T22:40:17.758Z,8.67
2023-05-04T22:42:47.525Z,11.43
2023-05-04T22:45:14.807Z,7.37
2023-05-04T22:47:42.165Z,8.37
2023-05-04T22:50:09.956Z,9.77
2023-05-04T22:52:37.575Z,6.93
2023-05-04T22:55:05.737Z,12.70
2023-05-04T22:57:32.305Z,11.10
2023-05-04T22:59:58.801Z,7.57
2023-05-04T23:02:25.647Z,9.90
2023-05-04T23:04:53.183Z,9.13
2023-05-04T23:07:20.244Z,9.23
2023-05-04T23:09:47.116Z,7.03
2023-05-04T23:12:14.015Z,13.33
2023-05-04T23:14:40.946Z,11.73
2023-05-04T23:17:07.737Z,8.93
2023-05-04T23:19:34.252Z,5.07
2023-05-04T23:22:00.942Z,8.33
2023-05-04T23:24:27.456Z,7.00
2023-05-04T23:26:54.139Z,6.67
2023-05-04T23:29:20.828Z,7.60
2023-05-04T23:31:47.371Z,7.23
2023-05-04T23:34:13.962Z,9.57
2023-05-04T23:36:40.460Z,7.17
2023-05-04T23:39:07.105Z,11.60
2023-05-04T23:41:34.151Z,9.63
2023-05-04T23:44:01.791Z,10.43
2023-05-04T23:46:28.363Z,9.87
2023-05-04T23:48:55.040Z,9.63
2023-05-04T23:51:21.572Z,8.00
2023-05-04T23:53:48.205Z,8.33
2023-05-04T23:56:14.772Z,9.40
2023-05-04T23:58:41.979Z,7.57
